Wetterdaten: Samstag / Sonntag, 23.11.2014
Datum Zeit Temp. A. Feuchte A. Luftdruck Regen Wind Richtung Richtung Taupunkt Windchill Windben
22.11.2014 12:00 5,3 C 85 % 1026,0 hPa 0,0 l/m 0,3 km/h N 360 3,0 C 5,3 C 3,2 km/h
22.11.2014 12:15 5,3 C 86 % 1026,0 hPa 0,0 l/m 0,1 km/h N 360 3,2 C 5,3 C 3,2 km/h
22.11.2014 12:30 5,3 C 86 % 1025,9 hPa 0,0 l/m 0,2 km/h N 360 3,2 C 5,3 C 3,2 km/h
22.11.2014 12:45 5,3 C 86 % 1025,9 hPa 0,0 l/m 0,1 km/h N 360 3,2 C 5,3 C 3,2 km/h
22.11.2014 13:00 5,3 C 86 % 1025,9 hPa 0,0 l/m 0,2 km/h N 360 3,2 C 5,3 C 3,2 km/h
22.11.2014 13:15 5,3 C 86 % 1026,0 hPa 0,0 l/m 0,0 km/h N 360 3,2 C 5,3 C 1,6 km/h
22.11.2014 13:30 5,3 C 86 % 1025,9 hPa 0,0 l/m 0,1 km/h N 360 3,2 C 5,3 C 3,2 km/h
22.11.2014 13:45 5,4 C 86 % 1025,9 hPa 0,0 l/m 0,0 km/h N 360 3,3 C 5,4 C 1,6 km/h
22.11.2014 14:00 5,3 C 85 % 1025,9 hPa 0,0 l/m 0,1 km/h N 360 3,0 C 5,3 C 1,6 km/h
22.11.2014 14:15 5,3 C 85 % 1025,7 hPa 0,0 l/m 0,0 km/h N 360 3,0 C 5,3 C 1,6 km/h
22.11.2014 14:30 5,3 C 85 % 1025,8 hPa 0,0 l/m 0,0 km/h N 360 3,0 C 5,3 C 1,6 km/h
22.11.2014 14:45 5,3 C 85 % 1025,8 hPa 0,0 l/m 0,1 km/h N 360 3,0 C 5,3 C 3,2 km/h
22.11.2014 15:00 5,3 C 84 % 1025,8 hPa 0,0 l/m 0,3 km/h N 360 2,8 C 5,3 C 3,2 km/h
22.11.2014 15:15 5,3 C 84 % 1026,0 hPa 0,0 l/m 1,7 km/h N 360 2,8 C 5,3 C 9,7 km/h
22.11.2014 15:30 5,3 C 84 % 1026,0 hPa 0,0 l/m 0,7 km/h N 360 2,8 C 5,3 C 4,8 km/h
22.11.2014 15:45 5,3 C 84 % 1026,0 hPa 0,0 l/m 0,1 km/h N 360 2,8 C 5,3 C 3,2 km/h
22.11.2014 16:00 5,4 C 84 % 1026,1 hPa 0,0 l/m 0,0 km/h N 360 2,9 C 5,4 C 0,0 km/h
22.11.2014 16:15 5,4 C 84 % 1026,0 hPa 0,0 l/m 0,0 km/h N 360 2,9 C 5,4 C 0,0 km/h
22.11.2014 16:30 5,5 C 84 % 1026,1 hPa 0,0 l/m 0,1 km/h N 360 3,0 C 5,5 C 1,6 km/h
22.11.2014 16:45 5,6 C 85 % 1026,2 hPa 0,0 l/m 0,1 km/h N 360 3,3 C 5,6 C 3,2 km/h
22.11.2014 17:00 5,6 C 85 % 1026,2 hPa 0,0 l/m 0,1 km/h N 360 3,3 C 5,6 C 3,2 km/h
22.11.2014 17:15 5,6 C 85 % 1026,2 hPa 0,0 l/m 0,6 km/h N 360 3,3 C 5,6 C 4,8 km/h
22.11.2014 17:30 5,6 C 86 % 1026,2 hPa 0,0 l/m 0,2 km/h N 360 3,4 C 5,6 C 3,2 km/h
22.11.2014 17:45 5,6 C 86 % 1026,3 hPa 0,0 l/m 0,1 km/h N 360 3,4 C 5,6 C 3,2 km/h
22.11.2014 18:00 5,6 C 86 % 1026,4 hPa 0,0 l/m 0,0 km/h N 360 3,4 C 5,6 C 1,6 km/h
22.11.2014 18:15 5,6 C 86 % 1026,3 hPa 0,0 l/m 0,1 km/h N 360 3,4 C 5,6 C 3,2 km/h
22.11.2014 18:30 5,6 C 86 % 1026,3 hPa 0,0 l/m 0,0 km/h N 360 3,4 C 5,6 C 1,6 km/h
22.11.2014 18:45 5,6 C 86 % 1026,4 hPa 0,0 l/m 0,2 km/h N 360 3,4 C 5,6 C 3,2 km/h
22.11.2014 19:00 5,6 C 86 % 1026,6 hPa 0,0 l/m 0,5 km/h N 360 3,4 C 5,6 C 6,4 km/h
22.11.2014 19:15 5,6 C 86 % 1026,6 hPa 0,0 l/m 0,3 km/h N 360 3,4 C 5,6 C 3,2 km/h
22.11.2014 19:30 5,6 C 86 % 1026,6 hPa 0,0 l/m 0,1 km/h N 360 3,4 C 5,6 C 3,2 km/h
22.11.2014 19:45 5,6 C 86 % 1026,8 hPa 0,0 l/m 0,4 km/h N 360 3,4 C 5,6 C 4,8 km/h
22.11.2014 20:00 5,6 C 86 % 1026,6 hPa 0,0 l/m 0,4 km/h N 360 3,4 C 5,6 C 6,4 km/h
22.11.2014 20:15 5,6 C 86 % 1026,7 hPa 0,0 l/m 0,3 km/h N 360 3,4 C 5,6 C 6,4 km/h
22.11.2014 20:30 5,6 C 85 % 1026,6 hPa 0,0 l/m 0,0 km/h N 360 3,3 C 5,6 C 3,2 km/h
22.11.2014 20:45 5,6 C 85 % 1026,6 hPa 0,0 l/m 0,2 km/h N 360 3,3 C 5,6 C 3,2 km/h
22.11.2014 21:00 5,6 C 86 % 1026,6 hPa 0,0 l/m 0,1 km/h N 360 3,4 C 5,6 C 3,2 km/h
22.11.2014 21:15 5,7 C 86 % 1026,6 hPa 0,0 l/m 0,4 km/h N 360 3,5 C 5,7 C 4,8 km/h
22.11.2014 21:30 5,6 C 86 % 1026,6 hPa 0,0 l/m 0,1 km/h N 360 3,4 C 5,6 C 1,6 km/h
22.11.2014 21:45 5,7 C 85 % 1026,5 hPa 0,0 l/m 0,2 km/h N 360 3,4 C 5,7 C 4,8 km/h
22.11.2014 22:00 5,7 C 85 % 1026,6 hPa 0,0 l/m 0,2 km/h N 360 3,4 C 5,7 C 3,2 km/h
22.11.2014 22:15 5,7 C 85 % 1026,6 hPa 0,0 l/m 0,0 km/h N 360 3,4 C 5,7 C 1,6 km/h
22.11.2014 22:30 5,7 C 85 % 1026,4 hPa 0,0 l/m 0,4 km/h N 360 3,4 C 5,7 C 6,4 km/h
22.11.2014 22:45 5,7 C 85 % 1026,5 hPa 0,0 l/m 0,0 km/h N 360 3,4 C 5,7 C 1,6 km/h
22.11.2014 23:00 5,7 C 85 % 1026,5 hPa 0,0 l/m 0,1 km/h N 360 3,4 C 5,7 C 3,2 km/h
22.11.2014 23:15 5,7 C 85 % 1026,5 hPa 0,0 l/m 0,0 km/h N 360 3,4 C 5,7 C 1,6 km/h
22.11.2014 23:30 5,8 C 85 % 1026,5 hPa 0,0 l/m 0,0 km/h N 360 3,5 C 5,8 C 1,6 km/h
22.11.2014 23:45 5,8 C 85 % 1026,5 hPa 0,0 l/m 0,3 km/h N 360 3,5 C 5,8 C 3,2 km/h
23.11.2014 00:00 5,8 C 85 % 1026,6 hPa 0,0 l/m 0,2 km/h N 360 3,5 C 5,8 C 4,8 km/h
23.11.2014 00:15 5,8 C 85 % 1026,5 hPa 0,0 l/m 0,4 km/h N 360 3,5 C 5,8 C 4,8 km/h
23.11.2014 00:30 5,8 C 86 % 1026,5 hPa 0,0 l/m 2,3 km/h N 360 3,6 C 5,8 C 8,0 km/h
23.11.2014 00:45 5,7 C 86 % 1026,7 hPa 0,0 l/m 1,5 km/h N 360 3,5 C 5,7 C 11,3 km/h
23.11.2014 01:00 5,7 C 86 % 1026,7 hPa 0,0 l/m 1,2 km/h N 360 3,5 C 5,7 C 6,4 km/h
23.11.2014 01:15 5,6 C 86 % 1026,9 hPa 0,0 l/m 0,3 km/h N 360 3,4 C 5,6 C 4,8 km/h
23.11.2014 01:30 5,2 C 85 % 1027,0 hPa 0,0 l/m 0,3 km/h N 360 2,9 C 5,2 C 3,2 km/h
23.11.2014 01:45 5,1 C 85 % 1027,2 hPa 0,0 l/m 0,0 km/h N 360 2,8 C 5,1 C 1,6 km/h
23.11.2014 02:00 4,8 C 85 % 1027,2 hPa 0,0 l/m 0,0 km/h N 360 2,5 C 4,8 C 0,0 km/h
23.11.2014 02:15 4,4 C 85 % 1027,3 hPa 0,0 l/m 0,1 km/h N 360 2,1 C 4,4 C 3,2 km/h
23.11.2014 02:30 4,1 C 85 % 1027,4 hPa 0,0 l/m 0,0 km/h N 360 1,8 C 4,1 C 0,0 km/h
23.11.2014 02:45 3,6 C 85 % 1027,2 hPa 0,0 l/m 0,0 km/h N 360 1,3 C 3,6 C 0,0 km/h
23.11.2014 03:00 3,3 C 85 % 1027,2 hPa 0,0 l/m 0,0 km/h N 360 1,0 C 3,3 C 0,0 km/h
23.11.2014 03:15 3,0 C 85 % 1027,3 hPa 0,0 l/m 0,0 km/h N 360 0,7 C 3,0 C 0,0 km/h
23.11.2014 03:30 2,6 C 85 % 1027,3 hPa 0,0 l/m 0,0 km/h N 360 0,3 C 2,6 C 0,0 km/h
23.11.2014 03:45 2,2 C 85 % 1027,3 hPa 0,0 l/m 0,0 km/h N 360 -0,1 C 2,2 C 0,0 km/h
23.11.2014 04:00 1,9 C 85 % 1027,3 hPa 0,0 l/m 0,0 km/h N 360 -0,3 C 1,9 C 0,0 km/h
23.11.2014 04:15 1,7 C 85 % 1027,5 hPa 0,0 l/m 0,0 km/h N 360 -0,5 C 1,7 C 0,0 km/h
23.11.2014 04:30 1,6 C 86 % 1027,4 hPa 0,0 l/m 0,0 km/h N 360 -0,5 C 1,6 C 0,0 km/h
23.11.2014 04:45 1,7 C 86 % 1027,5 hPa 0,0 l/m 0,0 km/h N 360 -0,4 C 1,7 C 0,0 km/h
23.11.2014 05:00 1,9 C 86 % 1027,5 hPa 0,0 l/m 0,0 km/h N 360 -0,2 C 1,9 C 0,0 km/h
23.11.2014 05:15 2,3 C 86 % 1027,3 hPa 0,0 l/m 0,0 km/h N 360 0,2 C 2,3 C 0,0 km/h
23.11.2014 05:30 2,6 C 86 % 1027,2 hPa 0,0 l/m 0,0 km/h N 360 0,5 C 2,6 C 0,0 km/h
23.11.2014 05:45 3,1 C 86 % 1027,3 hPa 0,0 l/m 0,0 km/h N 360 1,0 C 3,1 C 0,0 km/h
23.11.2014 06:00 3,2 C 85 % 1027,2 hPa 0,0 l/m 0,0 km/h N 360 0,9 C 3,2 C 0,0 km/h
23.11.2014 06:15 3,3 C 85 % 1027,1 hPa 0,0 l/m 0,0 km/h N 360 1,0 C 3,3 C 0,0 km/h
23.11.2014 06:30 3,2 C 86 % 1027,2 hPa 0,0 l/m 0,0 km/h N 360 1,1 C 3,2 C 0,0 km/h
23.11.2014 06:45 2,9 C 86 % 1027,1 hPa 0,0 l/m 0,0 km/h N 360 0,8 C 2,9 C 0,0 km/h
23.11.2014 07:00 2,7 C 86 % 1027,4 hPa 0,0 l/m 0,0 km/h N 360 0,6 C 2,7 C 0,0 km/h
23.11.2014 07:15 2,4 C 86 % 1027,7 hPa 0,0 l/m 0,0 km/h N 360 0,3 C 2,4 C 0,0 km/h
23.11.2014 07:30 2,3 C 86 % 1028,0 hPa 0,0 l/m 0,0 km/h N 360 0,2 C 2,3 C 0,0 km/h
23.11.2014 07:45 2,3 C 86 % 1028,2 hPa 0,0 l/m 0,0 km/h N 360 0,2 C 2,3 C 0,0 km/h
23.11.2014 08:00 2,3 C 85 % 1028,2 hPa 0,0 l/m 0,0 km/h N 360 0,0 C 2,3 C 1,6 km/h
23.11.2014 08:15 2,4 C 85 % 1028,5 hPa 0,0 l/m 0,0 km/h N 360 0,1 C 2,4 C 0,0 km/h
23.11.2014 08:30 2,6 C 85 % 1028,5 hPa 0,0 l/m 0,0 km/h N 360 0,3 C 2,6 C 0,0 km/h
23.11.2014 08:45 2,9 C 85 % 1028,7 hPa 0,0 l/m 0,0 km/h N 360 0,6 C 2,9 C 0,0 km/h
23.11.2014 09:00 3,3 C 84 % 1028,6 hPa 0,0 l/m 0,0 km/h N 360 0,9 C 3,3 C 1,6 km/h
23.11.2014 09:15 3,8 C 84 % 1028,6 hPa 0,0 l/m 1,5 km/h N 360 1,4 C 3,8 C 6,4 km/h
23.11.2014 09:30 4,4 C 85 % 1028,7 hPa 0,0 l/m 2,2 km/h N 360 2,1 C 4,4 C 6,4 km/h
23.11.2014 09:45 4,9 C 86 % 1028,8 hPa 0,0 l/m 3,2 km/h N 360 2,8 C 4,9 C 11,3 km/h
23.11.2014 10:00 5,6 C 85 % 1028,8 hPa 0,0 l/m 2,1 km/h N 360 3,3 C 5,6 C 9,7 km/h
23.11.2014 10:15 6,0 C 82 % 1028,9 hPa 0,0 l/m 3,3 km/h N 360 3,2 C 6,0 C 11,3 km/h
23.11.2014 10:30 6,3 C 81 % 1029,0 hPa 0,0 l/m 2,6 km/h N 360 3,3 C 6,3 C 9,7 km/h
23.11.2014 10:45 6,7 C 81 % 1028,8 hPa 0,0 l/m 2,6 km/h N 360 3,7 C 6,7 C 8,0 km/h
23.11.2014 11:00 7,0 C 80 % 1028,8 hPa 0,0 l/m 1,8 km/h N 360 3,8 C 7,0 C 8,0 km/h
_ Min-Zeit 04:30 11:00 14:15 - 13:15 - - 04:15 04:30 16:00
Minimum _ 1,6 C 80 % 1025,7 hPa - 0,0 km/h - - -0,5 C 1,6 C 0,0 km/h
_ Max-Zeit 11:00 12:15 10:30 12:00 10:15 - - 11:00 11:00 00:45
Maximum _ 7,0 C 86 % 1029,0 hPa 0,0 l/m 3,3 km/h
N
- - 3,8 C 7,0 C 11,3 km/h
N
Durchschnitt _ 4,7 C 85 % 1026,9 hPa #0,0 l/m 0,4 km/h N - 2,4 C 4,7 C 3,0 km/h